Murray, Iowa
Current Conditions -  °F | °C
As of 6:55 AM on Thursday 27 Nov 2014 (Local Time) from KI75 Reporting Station
Clear Clear  
Wind Chill: -5°   Ceiling: Unl
Heat Index:   Visibility: 10mi
Dew Point:   Wind: 12mph
Humidity: 79%   Direction: 320°NW
Pressure: 30.48"   Gusts: NA
Location:  41.04°N, 93.95°W
Report Text: KI75 271255Z AUTO 32010KT 10SM CLR M13/M16 A3048 RMK AO2 T11261156
Loading
Personal Weather Stations






























Interactive Weather Map New forecast layout! Learn more

10-Day Weather Forecast

Advertisements
Track Severe Weather on mobile